Time;durP1;ratioP1;P1;durP2;ratioP2;P2;SDS_P1;SDS_P2;PMS_P1;PMS_P2;Temp;Humidity;BMP_temperature;BMP_pressure;BME280_temperature;BME280_humidity;BME280_pressure;Samples;Min_cycle;Max_cycle;Signal;HPM_P1;HPM_P2
2022/10/20 00:01:51;;;;;;;19.25;11.85;;;;;;;;;;5000045;28;20091;-67
2022/10/20 00:04:17;;;;;;;15.98;11.38;;;;;;;;;;4934363;29;20091;-67
2022/10/20 00:06:44;;;;;;;15.95;10.57;;;;;;;;;;4934355;29;20052;-68
2022/10/20 00:09:11;;;;;;;13.63;10.43;;;;;;;;;;4933849;28;20052;-67
2022/10/20 00:11:37;;;;;;;15.38;10.38;;;;;;;;;;4934235;29;20134;-66
2022/10/20 00:14:04;;;;;;;18.38;10.55;;;;;;;;;;4934466;28;20047;-68
2022/10/20 00:16:34;;;;;;;14.82;10.18;;;;;;;;;;4934249;29;20138;-68
2022/10/20 00:19:01;;;;;;;15.10;10.10;;;;;;;;;;4933601;29;20058;-67
2022/10/20 00:21:28;;;;;;;16.50;11.10;;;;;;;;;;4933977;29;20051;-66
2022/10/20 00:23:55;;;;;;;13.95;10.85;;;;;;;;;;4933602;29;20092;-67
2022/10/20 00:26:25;;;;;;;14.63;11.23;;;;;;;;;;4934196;29;20151;-67
2022/10/20 00:28:52;;;;;;;12.90;10.77;;;;;;;;;;4933701;29;20125;-67
2022/10/20 00:31:20;;;;;;;16.83;10.75;;;;;;;;;;4933813;29;20105;-66
2022/10/20 00:33:46;;;;;;;17.88;10.95;;;;;;;;;;4933931;29;20154;-67
2022/10/20 00:36:15;;;;;;;16.10;11.00;;;;;;;;;;4933764;29;20075;-66
2022/10/20 00:38:42;;;;;;;14.10;10.90;;;;;;;;;;4933707;28;20074;-66
2022/10/20 00:41:13;;;;;;;14.80;10.63;;;;;;;;;;4933742;29;20517;-67
2022/10/20 00:43:49;;;;;;;18.85;11.77;;;;;;;;;;4997259;28;20113;-67
2022/10/20 00:46:18;;;;;;;18.15;11.02;;;;;;;;;;4932881;28;20494;-66
2022/10/20 00:48:51;;;;;;;13.57;10.32;;;;;;;;;;4981064;28;20084;-67
2022/10/20 00:51:20;;;;;;;16.95;11.27;;;;;;;;;;4933826;28;20499;-67
2022/10/20 00:53:47;;;;;;;17.98;10.85;;;;;;;;;;4981678;28;20514;-66
2022/10/20 00:56:14;;;;;;;17.60;10.40;;;;;;;;;;4998318;28;20110;-67
2022/10/20 00:58:41;;;;;;;13.95;10.18;;;;;;;;;;4997334;28;20063;-67
2022/10/20 01:01:07;;;;;;;14.95;10.80;;;;;;;;;;4998694;28;20130;-67
2022/10/20 01:03:38;;;;;;;15.85;10.02;;;;;;;;;;4998356;28;20052;-66
2022/10/20 01:06:05;;;;;;;15.85;11.13;;;;;;;;;;4982767;28;20143;-67
2022/10/20 01:08:32;;;;;;;16.80;10.15;;;;;;;;;;4932805;29;20098;-67
2022/10/20 01:11:25;;;;;;;15.32;10.15;;;;;;;;;;4998091;28;20048;-67
2022/10/20 01:14:07;;;;;;;13.65;9.52;;;;;;;;;;4933962;28;20450;-67
2022/10/20 01:16:39;;;;;;;13.38;9.48;;;;;;;;;;4933256;28;20094;-67
2022/10/20 01:19:32;;;;;;;13.27;9.95;;;;;;;;;;4932929;28;20052;-66
2022/10/20 01:22:18;;;;;;;13.88;10.75;;;;;;;;;;4997544;28;20484;-66
2022/10/20 01:24:52;;;;;;;17.20;10.77;;;;;;;;;;4998952;28;20465;-66
2022/10/20 01:27:38;;;;;;;19.33;12.13;;;;;;;;;;4999437;28;20106;-67
2022/10/20 01:30:16;;;;;;;14.60;11.07;;;;;;;;;;4999333;28;20048;-66
2022/10/20 01:33:04;;;;;;;18.67;12.00;;;;;;;;;;4998488;28;20055;-66
2022/10/20 01:35:37;;;;;;;16.33;11.95;;;;;;;;;;5013032;28;20053;-67
2022/10/20 01:38:26;;;;;;;17.52;11.32;;;;;;;;;;5015012;28;20049;-66
2022/10/20 01:40:55;;;;;;;17.92;12.05;;;;;;;;;;5015349;28;20045;-67
2022/10/20 01:43:23;;;;;;;17.83;11.82;;;;;;;;;;5015256;28;20053;-66
2022/10/20 01:45:50;;;;;;;16.67;11.75;;;;;;;;;;4978399;28;20106;-67
2022/10/20 01:48:19;;;;;;;19.10;12.15;;;;;;;;;;4978265;28;20059;-66
2022/10/20 01:50:45;;;;;;;17.02;11.70;;;;;;;;;;4993009;28;20048;-66
2022/10/20 01:53:12;;;;;;;19.50;12.18;;;;;;;;;;4978080;28;20108;-68
2022/10/20 01:55:39;;;;;;;15.18;11.00;;;;;;;;;;4913610;29;20060;-66
2022/10/20 01:58:17;;;;;;;17.67;12.13;;;;;;;;;;4922354;29;20642;-66
2022/10/20 02:00:44;;;;;;;16.85;11.63;;;;;;;;;;4997704;28;20070;-66
2022/10/20 02:03:20;;;;;;;17.55;11.93;;;;;;;;;;4931852;29;20055;-67
2022/10/20 02:06:11;;;;;;;18.98;12.32;;;;;;;;;;4997357;28;20883;-67
2022/10/20 02:08:47;;;;;;;17.15;11.30;;;;;;;;;;4931616;28;20051;-66
2022/10/20 02:11:32;;;;;;;17.38;11.27;;;;;;;;;;4981894;28;20047;-66
2022/10/20 02:13:59;;;;;;;18.48;12.35;;;;;;;;;;4932025;29;20457;-67
2022/10/20 02:16:35;;;;;;;19.50;11.13;;;;;;;;;;4981433;28;20461;-66
2022/10/20 02:19:02;;;;;;;14.43;10.85;;;;;;;;;;4979566;28;20487;-66
2022/10/20 02:21:30;;;;;;;16.10;10.68;;;;;;;;;;4997235;28;20495;-66
2022/10/20 02:23:59;;;;;;;18.80;10.43;;;;;;;;;;4997376;28;20086;-66
2022/10/20 02:26:25;;;;;;;14.77;10.52;;;;;;;;;;4980039;28;20101;-67
2022/10/20 02:28:56;;;;;;;16.25;10.57;;;;;;;;;;4996697;28;20125;-66
2022/10/20 02:31:23;;;;;;;16.33;10.48;;;;;;;;;;4981262;28;20110;-66
2022/10/20 02:33:50;;;;;;;15.52;11.15;;;;;;;;;;4981201;28;20105;-66
2022/10/20 02:36:19;;;;;;;15.05;9.50;;;;;;;;;;4997339;28;20052;-67
2022/10/20 02:38:45;;;;;;;15.35;9.93;;;;;;;;;;4931521;29;20499;-67
2022/10/20 02:41:12;;;;;;;13.43;10.20;;;;;;;;;;4931752;29;20121;-67
2022/10/20 02:43:39;;;;;;;13.85;9.73;;;;;;;;;;4996922;28;20055;-66
2022/10/20 02:46:05;;;;;;;14.73;11.00;;;;;;;;;;4932086;28;20462;-66
2022/10/20 02:48:32;;;;;;;16.00;11.05;;;;;;;;;;4931483;29;20418;-67
2022/10/20 02:50:58;;;;;;;18.00;11.80;;;;;;;;;;4931864;29;20106;-66
2022/10/20 02:53:25;;;;;;;14.73;11.38;;;;;;;;;;4931644;29;20056;-66
2022/10/20 02:55:52;;;;;;;19.15;11.38;;;;;;;;;;4931501;29;20529;-68
2022/10/20 02:58:18;;;;;;;18.75;11.52;;;;;;;;;;4931081;29;20056;-66
2022/10/20 03:00:45;;;;;;;19.70;13.20;;;;;;;;;;4931555;28;20462;-66
2022/10/20 03:03:11;;;;;;;22.08;11.80;;;;;;;;;;4931292;29;20047;-66
2022/10/20 03:05:40;;;;;;;16.13;12.25;;;;;;;;;;4931768;28;20055;-67
2022/10/20 03:08:07;;;;;;;22.60;12.18;;;;;;;;;;4931350;29;20063;-67
2022/10/20 03:10:34;;;;;;;20.20;11.48;;;;;;;;;;4931696;28;20494;-66
2022/10/20 03:13:00;;;;;;;16.00;11.77;;;;;;;;;;4931506;29;20052;-67
2022/10/20 03:15:27;;;;;;;19.45;13.10;;;;;;;;;;4932159;29;20066;-67
2022/10/20 03:17:54;;;;;;;15.77;11.50;;;;;;;;;;4934465;29;20105;-67
2022/10/20 03:20:20;;;;;;;19.52;12.55;;;;;;;;;;4934783;28;20048;-67
2022/10/20 03:22:47;;;;;;;18.05;11.65;;;;;;;;;;4934378;29;20113;-67
2022/10/20 03:25:14;;;;;;;15.98;11.45;;;;;;;;;;4934775;29;20110;-67
2022/10/20 03:27:40;;;;;;;18.55;11.73;;;;;;;;;;4934616;29;20098;-66
2022/10/20 03:30:07;;;;;;;19.92;12.57;;;;;;;;;;4934260;29;20055;-67
2022/10/20 03:32:34;;;;;;;18.38;11.68;;;;;;;;;;4934546;29;20121;-66
2022/10/20 03:35:01;;;;;;;19.10;12.32;;;;;;;;;;4999671;28;20139;-67
2022/10/20 03:37:27;;;;;;;19.45;12.57;;;;;;;;;;4934781;28;20059;-67
2022/10/20 03:39:54;;;;;;;19.48;12.30;;;;;;;;;;4934060;29;20043;-66
2022/10/20 03:42:21;;;;;;;14.82;11.32;;;;;;;;;;4934831;28;20059;-67
2022/10/20 03:44:47;;;;;;;16.85;11.73;;;;;;;;;;4934509;29;20059;-66
2022/10/20 03:47:14;;;;;;;17.65;12.55;;;;;;;;;;4934470;29;20403;-67
2022/10/20 03:49:41;;;;;;;18.35;13.13;;;;;;;;;;4934127;28;20403;-66
2022/10/20 03:52:07;;;;;;;20.10;13.18;;;;;;;;;;4934309;29;20501;-67
2022/10/20 03:54:34;;;;;;;16.60;12.57;;;;;;;;;;4934588;28;20059;-66
2022/10/20 03:57:01;;;;;;;18.08;12.65;;;;;;;;;;4933998;29;20666;-67
2022/10/20 03:59:33;;;;;;;20.88;13.38;;;;;;;;;;4933805;29;20051;-66
2022/10/20 04:01:59;;;;;;;25.05;14.95;;;;;;;;;;4934231;28;20106;-67
2022/10/20 04:04:26;;;;;;;22.70;13.25;;;;;;;;;;5057283;22;20048;-65
2022/10/20 04:06:53;;;;;;;20.88;12.82;;;;;;;;;;5094407;28;20048;-65
2022/10/20 04:09:20;;;;;;;20.02;13.27;;;;;;;;;;5092539;28;20555;-64
2022/10/20 04:11:46;;;;;;;19.13;13.18;;;;;;;;;;5079061;28;20101;-66
2022/10/20 04:14:13;;;;;;;14.55;10.55;;;;;;;;;;5083176;28;20078;-66
2022/10/20 04:16:40;;;;;;;16.92;12.05;;;;;;;;;;5046490;28;20131;-65
2022/10/20 04:19:07;;;;;;;16.25;12.25;;;;;;;;;;5053228;28;20057;-66
2022/10/20 04:21:34;;;;;;;17.45;11.75;;;;;;;;;;5053558;28;20045;-66
2022/10/20 04:24:00;;;;;;;22.52;12.05;;;;;;;;;;5053670;28;20487;-66
2022/10/20 04:26:27;;;;;;;16.00;11.57;;;;;;;;;;5053499;28;20102;-66
2022/10/20 04:28:55;;;;;;;16.73;11.35;;;;;;;;;;5053114;28;20049;-66
2022/10/20 04:31:22;;;;;;;21.88;11.95;;;;;;;;;;5054082;28;20479;-65
2022/10/20 04:33:49;;;;;;;17.30;11.27;;;;;;;;;;5053419;28;20049;-66
2022/10/20 04:36:15;;;;;;;18.33;11.90;;;;;;;;;;5053911;28;20446;-68
2022/10/20 04:38:42;;;;;;;20.13;12.65;;;;;;;;;;5053270;28;20082;-67
2022/10/20 04:41:09;;;;;;;21.17;12.95;;;;;;;;;;5053558;28;20077;-66
2022/10/20 04:43:36;;;;;;;22.08;12.77;;;;;;;;;;5053352;28;20045;-67
2022/10/20 04:46:04;;;;;;;21.15;12.75;;;;;;;;;;5053270;28;20103;-66
2022/10/20 04:48:35;;;;;;;20.52;13.23;;;;;;;;;;5052588;28;20045;-66
2022/10/20 04:51:06;;;;;;;18.67;12.35;;;;;;;;;;5053435;28;20087;-67
2022/10/20 04:53:32;;;;;;;22.05;13.02;;;;;;;;;;5053334;28;20049;-67
2022/10/20 04:55:59;;;;;;;23.35;13.88;;;;;;;;;;5053397;28;20084;-67
2022/10/20 04:58:26;;;;;;;19.80;12.38;;;;;;;;;;5089832;28;20052;-67
2022/10/20 05:00:53;;;;;;;23.08;13.00;;;;;;;;;;5089470;28;20079;-66
2022/10/20 05:03:20;;;;;;;24.02;13.13;;;;;;;;;;5062271;28;20557;-67
2022/10/20 05:05:47;;;;;;;21.33;13.35;;;;;;;;;;5053228;28;20106;-66
2022/10/20 05:08:13;;;;;;;24.10;13.18;;;;;;;;;;5052412;28;20064;-66
2022/10/20 05:10:40;;;;;;;21.75;13.57;;;;;;;;;;5052895;28;20130;-67
2022/10/20 05:13:06;;;;;;;21.88;12.77;;;;;;;;;;5053160;28;20049;-67
2022/10/20 05:15:33;;;;;;;22.48;13.30;;;;;;;;;;5052756;28;20190;-66
2022/10/20 05:18:00;;;;;;;22.98;13.70;;;;;;;;;;5055546;28;20098;-66
2022/10/20 05:20:26;;;;;;;21.30;13.90;;;;;;;;;;5052646;28;20091;-68
2022/10/20 05:22:56;;;;;;;27.88;14.93;;;;;;;;;;5052454;28;20140;-65
2022/10/20 05:25:23;;;;;;;21.23;13.68;;;;;;;;;;5049713;28;20461;-67
2022/10/20 05:28:02;;;;;;;20.80;13.63;;;;;;;;;;5050429;28;20067;-66
2022/10/20 05:30:29;;;;;;;25.67;14.55;;;;;;;;;;5050271;28;20103;-67
2022/10/20 05:32:55;;;;;;;21.77;14.07;;;;;;;;;;5050293;28;20056;-67
2022/10/20 05:35:22;;;;;;;21.42;13.07;;;;;;;;;;5050328;28;20466;-66
2022/10/20 05:37:48;;;;;;;24.85;13.90;;;;;;;;;;5049218;28;20098;-65
2022/10/20 05:40:15;;;;;;;21.27;13.35;;;;;;;;;;5049667;28;20158;-67
2022/10/20 05:42:42;;;;;;;22.02;13.10;;;;;;;;;;5050073;28;20103;-65
2022/10/20 05:45:08;;;;;;;23.63;13.82;;;;;;;;;;5050408;28;20114;-66
2022/10/20 05:47:35;;;;;;;21.52;13.90;;;;;;;;;;5050250;28;20119;-66
2022/10/20 05:50:02;;;;;;;22.08;13.48;;;;;;;;;;5049017;28;20049;-66
2022/10/20 05:52:29;;;;;;;24.65;14.00;;;;;;;;;;5050018;28;20106;-66
2022/10/20 05:54:55;;;;;;;20.75;13.13;;;;;;;;;;5049815;28;20045;-66
2022/10/20 05:57:22;;;;;;;19.85;12.73;;;;;;;;;;5050358;28;20053;-66
2022/10/20 05:59:48;;;;;;;20.77;13.43;;;;;;;;;;5049310;28;20053;-66
2022/10/20 06:02:15;;;;;;;21.60;13.60;;;;;;;;;;5050136;28;20045;-67
2022/10/20 06:04:42;;;;;;;21.02;13.25;;;;;;;;;;5049185;28;20495;-66
2022/10/20 06:07:11;;;;;;;20.98;13.35;;;;;;;;;;5049914;28;20103;-67
2022/10/20 06:09:38;;;;;;;18.58;12.80;;;;;;;;;;5049093;28;20511;-67
2022/10/20 06:12:05;;;;;;;22.13;13.85;;;;;;;;;;5050053;28;20049;-66
2022/10/20 06:14:37;;;;;;;19.40;13.35;;;;;;;;;;5049725;28;20049;-66
2022/10/20 06:17:04;;;;;;;18.27;11.88;;;;;;;;;;5049344;28;20052;-66
2022/10/20 06:19:30;;;;;;;21.40;13.35;;;;;;;;;;5048939;28;20056;-67
2022/10/20 06:21:57;;;;;;;16.85;11.02;;;;;;;;;;5049297;28;20419;-66
2022/10/20 06:24:32;;;;;;;21.63;12.32;;;;;;;;;;5056257;28;20061;-67
2022/10/20 06:26:59;;;;;;;18.45;12.40;;;;;;;;;;5069845;28;20117;-66
2022/10/20 06:29:25;;;;;;;18.13;11.60;;;;;;;;;;5068404;28;20052;-66
2022/10/20 06:31:52;;;;;;;18.20;11.65;;;;;;;;;;5069740;28;20044;-66
2022/10/20 06:34:24;;;;;;;16.67;11.63;;;;;;;;;;5035147;28;20109;-69
2022/10/20 06:36:50;;;;;;;16.33;12.07;;;;;;;;;;5069316;28;20052;-65
2022/10/20 06:39:20;;;;;;;14.40;10.13;;;;;;;;;;5068823;28;20502;-66
2022/10/20 06:41:49;;;;;;;13.45;10.50;;;;;;;;;;5069471;28;20044;-66
2022/10/20 06:44:17;;;;;;;13.70;9.85;;;;;;;;;;5069056;28;20048;-65
2022/10/20 06:46:43;;;;;;;14.73;9.77;;;;;;;;;;5069445;28;20608;-66
2022/10/20 06:49:10;;;;;;;13.57;10.13;;;;;;;;;;5068679;28;20056;-66
2022/10/20 06:51:37;;;;;;;11.95;9.43;;;;;;;;;;5055434;28;20074;-67
2022/10/20 06:54:05;;;;;;;13.35;9.88;;;;;;;;;;5073310;28;20065;-66
2022/10/20 06:56:33;;;;;;;13.95;10.43;;;;;;;;;;5072726;28;20056;-66
2022/10/20 06:59:00;;;;;;;12.32;10.15;;;;;;;;;;5072917;28;20067;-66
2022/10/20 07:01:29;;;;;;;12.65;9.70;;;;;;;;;;5073359;28;20045;-67
2022/10/20 07:04:01;;;;;;;12.65;9.90;;;;;;;;;;5073251;28;20498;-66
2022/10/20 07:06:35;;;;;;;11.93;8.82;;;;;;;;;;5072818;28;20074;-67
2022/10/20 07:09:03;;;;;;;13.07;8.75;;;;;;;;;;5072304;28;20040;-67
2022/10/20 07:11:30;;;;;;;11.15;8.07;;;;;;;;;;5073319;28;20102;-67
2022/10/20 07:13:58;;;;;;;11.27;8.25;;;;;;;;;;5072991;28;20048;-67
2022/10/20 07:16:26;;;;;;;12.40;9.02;;;;;;;;;;5073451;28;20049;-67
2022/10/20 07:18:53;;;;;;;13.68;9.52;;;;;;;;;;5072202;28;20148;-67
2022/10/20 07:21:22;;;;;;;13.23;9.80;;;;;;;;;;5071561;28;20057;-67
2022/10/20 07:23:49;;;;;;;11.95;8.95;;;;;;;;;;5072834;28;20560;-67
2022/10/20 07:26:18;;;;;;;14.05;9.45;;;;;;;;;;5072644;28;20053;-67
2022/10/20 07:28:47;;;;;;;9.40;8.27;;;;;;;;;;5071861;28;20052;-66
2022/10/20 07:31:26;;;;;;;12.02;7.57;;;;;;;;;;5072913;28;20422;-67
2022/10/20 07:33:53;;;;;;;11.35;7.78;;;;;;;;;;5072770;28;20053;-66
2022/10/20 07:36:40;;;;;;;9.82;8.02;;;;;;;;;;5059088;28;20052;-66
2022/10/20 07:39:07;;;;;;;9.90;8.25;;;;;;;;;;5048350;28;20049;-67
2022/10/20 07:41:35;;;;;;;13.32;7.78;;;;;;;;;;5069846;28;20134;-67
2022/10/20 07:44:01;;;;;;;12.57;7.22;;;;;;;;;;5041016;28;20527;-69
2022/10/20 07:46:28;;;;;;;9.80;6.97;;;;;;;;;;5069582;28;20048;-67
2022/10/20 07:48:55;;;;;;;9.55;7.22;;;;;;;;;;5068251;28;20056;-68
2022/10/20 07:51:37;;;;;;;8.80;6.70;;;;;;;;;;5067703;28;20049;-68
2022/10/20 07:54:06;;;;;;;8.20;6.75;;;;;;;;;;5068419;28;20040;-67
2022/10/20 07:56:35;;;;;;;7.47;6.15;;;;;;;;;;5064791;28;20041;-68
2022/10/20 07:59:02;;;;;;;6.90;5.82;;;;;;;;;;5062906;28;20090;-68
2022/10/20 08:01:29;;;;;;;7.93;6.72;;;;;;;;;;5062388;28;20212;-67
2022/10/20 08:03:56;;;;;;;7.63;6.18;;;;;;;;;;5070068;28;20131;-69
2022/10/20 08:06:23;;;;;;;7.63;6.72;;;;;;;;;;5066820;28;20502;-67
2022/10/20 08:08:50;;;;;;;12.32;7.10;;;;;;;;;;5067588;28;20082;-68
2022/10/20 08:11:17;;;;;;;6.53;5.55;;;;;;;;;;5071619;28;20128;-68
2022/10/20 08:13:44;;;;;;;7.30;6.50;;;;;;;;;;5075540;28;20113;-70
2022/10/20 08:16:12;;;;;;;6.22;5.20;;;;;;;;;;5069754;28;20044;-70
2022/10/20 08:18:44;;;;;;;5.82;4.95;;;;;;;;;;5067837;28;20052;-71
2022/10/20 08:21:21;;;;;;;7.68;6.22;;;;;;;;;;5067037;28;20059;-72
2022/10/20 08:23:49;;;;;;;6.50;5.43;;;;;;;;;;5060049;28;20052;-72
2022/10/20 08:26:18;;;;;;;6.13;5.30;;;;;;;;;;5049002;28;20052;-69
2022/10/20 08:28:45;;;;;;;5.55;4.97;;;;;;;;;;5067674;28;20056;-72
2022/10/20 08:31:12;;;;;;;7.45;4.50;;;;;;;;;;5067854;28;20461;-69
2022/10/20 08:33:39;;;;;;;6.95;5.38;;;;;;;;;;5068309;28;20596;-69
2022/10/20 08:36:09;;;;;;;6.20;4.80;;;;;;;;;;5067099;28;20079;-70
2022/10/20 08:38:36;;;;;;;5.20;4.43;;;;;;;;;;5046564;28;20778;-69
2022/10/20 08:41:04;;;;;;;6.72;4.25;;;;;;;;;;5068548;28;20102;-68
2022/10/20 08:43:30;;;;;;;4.53;4.13;;;;;;;;;;5051065;28;20056;-67
2022/10/20 08:45:57;;;;;;;5.55;4.55;;;;;;;;;;5034107;28;20052;-69
2022/10/20 08:48:26;;;;;;;8.63;4.32;;;;;;;;;;5068481;28;20497;-71
2022/10/20 08:50:53;;;;;;;4.28;3.88;;;;;;;;;;5068778;28;20053;-68
2022/10/20 08:53:22;;;;;;;7.55;3.75;;;;;;;;;;5068615;28;20049;-69
2022/10/20 08:55:49;;;;;;;5.10;4.38;;;;;;;;;;5051646;28;20113;-68
2022/10/20 08:58:18;;;;;;;3.88;3.58;;;;;;;;;;5066808;28;20048;-69
2022/10/20 09:00:46;;;;;;;4.45;4.00;;;;;;;;;;5064792;28;20061;-68
2022/10/20 09:03:17;;;;;;;4.43;4.00;;;;;;;;;;5068465;28;20578;-69
2022/10/20 09:05:47;;;;;;;4.38;3.75;;;;;;;;;;5067440;28;20052;-69
2022/10/20 09:08:15;;;;;;;6.90;3.58;;;;;;;;;;5049839;28;20101;-70
2022/10/20 09:10:50;;;;;;;4.68;3.78;;;;;;;;;;5051269;28;20117;-70
2022/10/20 09:13:30;;;;;;;7.60;4.88;;;;;;;;;;5031108;28;20055;-70
2022/10/20 09:16:05;;;;;;;5.40;3.90;;;;;;;;;;5049193;28;20044;-69
2022/10/20 09:18:32;;;;;;;4.25;3.60;;;;;;;;;;5050822;28;20420;-69
2022/10/20 09:21:15;;;;;;;3.75;3.33;;;;;;;;;;5044324;28;20056;-69
2022/10/20 09:23:44;;;;;;;8.02;3.47;;;;;;;;;;5051263;28;20071;-70
2022/10/20 09:26:15;;;;;;;4.90;3.28;;;;;;;;;;5050146;28;20045;-68
2022/10/20 09:29:16;;;;;;;3.80;2.92;;;;;;;;;;5066340;28;20227;-70
2022/10/20 09:31:53;;;;;;;3.72;2.85;;;;;;;;;;5067009;28;20477;-70
2022/10/20 09:34:27;;;;;;;3.20;2.72;;;;;;;;;;5050183;28;20052;-70
2022/10/20 09:36:57;;;;;;;3.40;2.90;;;;;;;;;;5064047;28;20462;-70
2022/10/20 09:39:27;;;;;;;4.10;3.28;;;;;;;;;;5066303;28;20048;-70
2022/10/20 09:42:05;;;;;;;3.08;2.78;;;;;;;;;;5049441;28;20125;-71
2022/10/20 09:44:34;;;;;;;4.53;3.10;;;;;;;;;;5049834;28;20052;-69
2022/10/20 09:47:01;;;;;;;3.80;3.15;;;;;;;;;;5066949;28;20113;-68
2022/10/20 09:49:31;;;;;;;3.80;2.92;;;;;;;;;;5063110;28;20044;-72
2022/10/20 09:51:58;;;;;;;3.30;3.00;;;;;;;;;;5067086;28;20477;-71
2022/10/20 09:54:25;;;;;;;3.05;2.72;;;;;;;;;;5066421;28;20079;-70
2022/10/20 09:56:52;;;;;;;4.53;2.60;;;;;;;;;;5069232;28;20106;-68
2022/10/20 09:59:25;;;;;;;4.03;3.13;;;;;;;;;;5048843;28;20063;-70
2022/10/20 10:01:53;;;;;;;4.32;2.90;;;;;;;;;;5023626;28;20350;-69
2022/10/20 10:04:37;;;;;;;3.10;2.80;;;;;;;;;;5067174;28;20052;-69
2022/10/20 10:07:25;;;;;;;5.25;3.03;;;;;;;;;;5064694;28;20104;-70
2022/10/20 10:10:00;;;;;;;3.63;2.83;;;;;;;;;;5048836;28;20071;-69
2022/10/20 10:12:34;;;;;;;4.15;3.05;;;;;;;;;;5050654;28;20107;-68
2022/10/20 10:15:05;;;;;;;3.40;3.10;;;;;;;;;;5049278;28;20048;-69
2022/10/20 10:17:39;;;;;;;3.30;2.50;;;;;;;;;;5045544;28;20044;-68
2022/10/20 10:20:33;;;;;;;3.20;2.90;;;;;;;;;;5047049;28;20044;-70
2022/10/20 10:23:28;;;;;;;2.72;2.47;;;;;;;;;;5025496;28;20041;-70
2022/10/20 10:25:55;;;;;;;4.55;2.65;;;;;;;;;;5064646;28;20373;-68
2022/10/20 10:28:32;;;;;;;3.08;2.60;;;;;;;;;;5033994;28;20056;-71
2022/10/20 10:31:06;;;;;;;5.15;2.53;;;;;;;;;;5066614;28;20048;-70
2022/10/20 10:33:32;;;;;;;3.05;2.35;;;;;;;;;;5067177;28;20059;-70
2022/10/20 10:36:05;;;;;;;3.85;2.75;;;;;;;;;;5068467;28;20056;-71
2022/10/20 10:38:31;;;;;;;;;;;;;;;;;;5050508;28;20052;-71
2022/10/20 10:41:17;;;;;;;6.18;2.72;;;;;;;;;;5050543;28;19924;-70
2022/10/20 10:43:50;;;;;;;3.55;3.08;;;;;;;;;;5068210;28;20052;-69
2022/10/20 10:46:25;;;;;;;3.10;2.80;;;;;;;;;;5068181;28;20110;-69
2022/10/20 10:48:51;;;;;;;6.07;3.05;;;;;;;;;;5050847;28;20990;-70
2022/10/20 10:51:25;;;;;;;3.50;3.00;;;;;;;;;;5077186;23;20102;-69
2022/10/20 10:54:06;;;;;;;2.80;2.60;;;;;;;;;;5016882;28;20083;-72
2022/10/20 10:56:58;;;;;;;3.80;2.80;;;;;;;;;;5034155;28;20053;-72
2022/10/20 10:59:35;;;;;;;3.20;2.90;;;;;;;;;;5016485;28;20103;-74
2022/10/20 11:02:21;;;;;;;4.57;2.67;;;;;;;;;;5013388;28;20046;-71
2022/10/20 11:05:09;;;;;;;3.20;2.53;;;;;;;;;;5031018;28;20049;-69
2022/10/20 11:07:42;;;;;;;3.65;2.53;;;;;;;;;;5030579;28;20446;-73
2022/10/20 11:10:47;;;;;;;;;;;;;;;;;;5029374;28;20054;-73
2022/10/20 11:13:35;;;;;;;3.17;2.28;;;;;;;;;;4973311;28;19952;-68
2022/10/20 11:16:27;;;;;;;4.03;2.40;;;;;;;;;;4969134;28;20082;-68
2022/10/20 11:19:16;;;;;;;7.95;2.50;;;;;;;;;;4984940;28;20050;-68
2022/10/20 11:21:45;;;;;;;2.95;2.75;;;;;;;;;;5010423;28;20054;-68
2022/10/20 11:24:36;;;;;;;4.97;2.40;;;;;;;;;;5010773;28;20089;-68
2022/10/20 11:27:21;;;;;;;4.65;2.83;;;;;;;;;;5010702;28;20081;-69
2022/10/20 11:30:03;;;;;;;3.05;2.35;;;;;;;;;;5009358;28;20061;-76
2022/10/20 11:32:41;;;;;;;4.38;2.50;;;;;;;;;;5010196;28;20042;-77
2022/10/20 11:35:14;;;;;;;6.35;3.15;;;;;;;;;;4998632;28;20463;-78
2022/10/20 11:37:46;;;;;;;3.75;2.80;;;;;;;;;;5032972;28;20095;-75
2022/10/20 11:40:22;;;;;;;2.25;2.05;;;;;;;;;;5033896;28;20053;-76
2022/10/20 11:42:51;;;;;;;3.67;2.72;;;;;;;;;;5033703;28;20045;-77
2022/10/20 11:45:29;;;;;;;3.15;2.00;;;;;;;;;;5033420;28;20053;-81
2022/10/20 11:48:26;;;;;;;4.60;2.90;;;;;;;;;;5037656;28;20073;-80
2022/10/20 11:51:29;;;;;;;3.97;2.33;;;;;;;;;;5035955;28;20049;-77
2022/10/20 11:54:27;;;;;;;5.28;2.80;;;;;;;;;;5021152;28;20050;-76
2022/10/20 11:56:55;;;;;;;3.88;2.55;;;;;;;;;;5038018;28;20049;-77
2022/10/20 11:59:31;;;;;;;4.70;2.45;;;;;;;;;;5033717;28;20049;-73
2022/10/20 12:02:28;;;;;;;4.70;2.95;;;;;;;;;;5035014;28;20052;-73
2022/10/20 12:05:17;;;;;;;2.88;2.47;;;;;;;;;;5018371;28;20057;-68
2022/10/20 12:08:02;;;;;;;4.82;2.90;;;;;;;;;;5033326;28;20052;-74
2022/10/20 12:10:57;;;;;;;4.72;2.63;;;;;;;;;;5020495;28;20088;-71
2022/10/20 12:13:49;;;;;;;3.47;2.78;;;;;;;;;;5044005;28;20103;-75
2022/10/20 12:16:50;;;;;;;3.50;2.70;;;;;;;;;;5029454;28;20185;-76
2022/10/20 12:19:18;;;;;;;4.32;2.67;;;;;;;;;;5034719;28;20045;-74
2022/10/20 12:22:12;;;;;;;3.30;2.40;;;;;;;;;;5016050;28;20049;-74
2022/10/20 12:24:52;;;;;;;4.30;2.80;;;;;;;;;;5033849;28;20420;-73
2022/10/20 12:27:23;;;;;;;3.45;2.28;;;;;;;;;;5018092;28;20053;-78
2022/10/20 12:30:18;;;;;;;5.47;2.60;;;;;;;;;;5033124;28;20049;-74
2022/10/20 12:32:57;;;;;;;3.60;2.40;;;;;;;;;;5032633;28;20041;-74
2022/10/20 12:35:24;;;;;;;3.03;2.50;;;;;;;;;;5032761;28;20111;-74
2022/10/20 12:37:55;;;;;;;2.50;2.30;;;;;;;;;;5033239;28;20053;-75
2022/10/20 12:40:44;;;;;;;4.82;2.83;;;;;;;;;;5032833;28;20053;-68
2022/10/20 12:43:35;;;;;;;3.67;1.92;;;;;;;;;;4995164;28;20432;-70
2022/10/20 12:46:08;;;;;;;4.68;2.72;;;;;;;;;;4995761;28;20103;-71
2022/10/20 12:48:37;;;;;;;5.53;2.58;;;;;;;;;;4995127;28;20112;-69
2022/10/20 12:51:14;;;;;;;6.07;3.10;;;;;;;;;;4995910;28;20108;-70
2022/10/20 12:53:41;;;;;;;6.70;3.25;;;;;;;;;;4995643;28;20293;-70
2022/10/20 12:56:09;;;;;;;5.07;3.03;;;;;;;;;;5013500;28;20119;-69
2022/10/20 12:58:37;;;;;;;6.65;3.17;;;;;;;;;;4995651;28;20115;-73
2022/10/20 13:01:08;;;;;;;5.45;3.72;;;;;;;;;;5012332;28;20200;-74
2022/10/20 13:03:49;;;;;;;3.90;3.45;;;;;;;;;;4996121;28;20046;-73
2022/10/20 13:06:22;;;;;;;5.10;3.10;;;;;;;;;;4995789;28;20496;-73
2022/10/20 13:09:09;;;;;;;8.05;4.20;;;;;;;;;;5012590;28;20050;-73
2022/10/20 13:11:39;;;;;;;5.60;4.22;;;;;;;;;;5013480;28;20050;-74
2022/10/20 13:14:12;;;;;;;6.32;4.25;;;;;;;;;;4996134;28;20049;-74
2022/10/20 13:16:51;;;;;;;5.93;4.47;;;;;;;;;;5015543;28;20499;-74
2022/10/20 13:19:23;;;;;;;7.78;5.32;;;;;;;;;;5014175;28;20049;-72
2022/10/20 13:21:49;;;;;;;7.87;5.13;;;;;;;;;;5014473;28;20111;-74
2022/10/20 13:24:25;;;;;;;5.75;4.70;;;;;;;;;;5015003;28;20406;-74
2022/10/20 13:26:55;;;;;;;7.03;4.90;;;;;;;;;;4987891;28;20077;-74
2022/10/20 13:29:26;;;;;;;5.72;4.45;;;;;;;;;;4995182;28;20115;-71
2022/10/20 13:32:21;;;;;;;7.25;4.82;;;;;;;;;;5011790;28;20049;-73
2022/10/20 13:34:56;;;;;;;8.80;6.10;;;;;;;;;;5016302;28;20050;-67
2022/10/20 13:37:47;;;;;;;7.55;5.55;;;;;;;;;;5012763;28;20068;-68
2022/10/20 13:41:05;;;;;;;7.03;5.43;;;;;;;;;;5031895;28;20088;-68
2022/10/20 13:43:58;;;;;;;9.48;6.05;;;;;;;;;;4969676;28;20482;-68
2022/10/20 13:46:52;;;;;;;7.60;5.95;;;;;;;;;;4980341;28;20053;-68
2022/10/20 13:50:04;;;;;;;9.98;6.90;;;;;;;;;;5022522;28;20515;-67
2022/10/20 13:52:33;;;;;;;8.15;5.32;;;;;;;;;;5031098;28;20461;-70
2022/10/20 13:55:00;;;;;;;6.45;4.57;;;;;;;;;;5030907;28;20053;-74
2022/10/20 13:57:32;;;;;;;5.95;4.55;;;;;;;;;;5014183;28;20049;-73
2022/10/20 14:00:01;;;;;;;9.15;4.60;;;;;;;;;;5009832;28;20657;-72
2022/10/20 14:02:30;;;;;;;5.05;4.57;;;;;;;;;;4996860;28;20092;-73
2022/10/20 14:05:12;;;;;;;6.50;4.57;;;;;;;;;;5015153;28;20393;-77
2022/10/20 14:07:43;;;;;;;8.98;5.13;;;;;;;;;;5005467;28;20055;-79
2022/10/20 14:10:21;;;;;;;6.82;5.20;;;;;;;;;;5013543;28;20050;-80
2022/10/20 14:13:34;;;;;;;6.97;5.45;;;;;;;;;;5033984;28;20053;-83
2022/10/20 14:16:05;;;;;;;6.32;5.50;;;;;;;;;;5019791;28;20061;-77
2022/10/20 14:18:34;;;;;;;6.43;4.80;;;;;;;;;;5014396;28;20049;-81
2022/10/20 14:21:12;;;;;;;5.28;4.78;;;;;;;;;;5029933;28;20045;-73
2022/10/20 14:23:41;;;;;;;5.40;4.65;;;;;;;;;;5012064;28;20103;-72
2022/10/20 14:26:15;;;;;;;7.95;4.68;;;;;;;;;;5026450;28;20049;-69
2022/10/20 14:28:42;;;;;;;6.75;5.10;;;;;;;;;;5003290;28;20057;-71
2022/10/20 14:31:10;;;;;;;5.30;4.65;;;;;;;;;;5019545;28;20057;-78
2022/10/20 14:33:44;;;;;;;5.65;4.55;;;;;;;;;;5007188;28;20058;-76
2022/10/20 14:36:19;;;;;;;5.40;4.80;;;;;;;;;;5010270;28;20045;-67
2022/10/20 14:38:50;;;;;;;4.90;4.30;;;;;;;;;;5014334;28;20053;-68
2022/10/20 14:41:28;;;;;;;6.05;4.85;;;;;;;;;;5019719;28;20103;-68
2022/10/20 14:43:59;;;;;;;7.25;4.78;;;;;;;;;;5016331;28;20122;-67
2022/10/20 14:46:46;;;;;;;7.95;5.45;;;;;;;;;;4988184;28;20060;-68
2022/10/20 14:49:18;;;;;;;6.75;5.50;;;;;;;;;;5018884;28;20416;-67
2022/10/20 14:51:52;;;;;;;7.57;5.38;;;;;;;;;;5010673;28;20528;-68
2022/10/20 14:54:18;;;;;;;5.47;4.68;;;;;;;;;;5001000;28;20054;-73
2022/10/20 14:56:53;;;;;;;5.90;5.03;;;;;;;;;;5020493;28;20506;-69
2022/10/20 14:59:25;;;;;;;7.78;5.75;;;;;;;;;;5016435;28;20136;-70
2022/10/20 15:02:08;;;;;;;6.72;5.13;;;;;;;;;;5015942;28;20049;-70